< Typhoon 198619 1986 Season Typhoon 198621 >
Typhoon 198620 (ELLEN)
General InformationTrack Information on Google MapsDetailed Wind InformationList of All Images || Disaster Info.ResourceGoogle EarthGE AnimationAtom FeedGeoJSON
Detalied Best Track (Time Zone = UTC)
Year Month Day Hour Lat. Long. Pressure (hPa) Wind (kt) Class Image Chart
1986 10 9 12 8.0 138.0 1006 0 2 Image Chart
1986 10 9 18 9.0 136.0 1006 0 2 Image Chart
1986 10 10 00 9.5 133.5 1006 0 2 Image Chart
1986 10 10 06 9.5 131.5 1004 0 2 Image Chart
1986 10 10 12 9.5 129.5 1000 0 2 Image Chart
1986 10 10 18 10.0 128.0 996 40 3 Image Chart
1986 10 11 00 10.6 126.7 992 40 3 Image Chart
1986 10 11 06 11.0 125.4 992 45 3 Image Chart
1986 10 11 12 11.3 124.2 994 45 3 Image Chart
1986 10 11 18 11.6 122.9 994 40 3 Image Chart
1986 10 12 00 12.0 121.5 994 40 3 Image Chart
1986 10 12 06 13.0 120.2 992 45 3 Image Chart
1986 10 12 12 14.1 119.4 992 45 3 Image Chart
1986 10 12 18 14.6 118.8 992 45 3 Image Chart
1986 10 13 00 15.1 118.3 990 50 4 Image Chart
1986 10 13 06 15.5 118.1 985 55 4 Image Chart
1986 10 13 12 15.9 117.9 980 55 4 Image Chart
1986 10 13 18 16.4 118.0 975 60 4 Image Chart
1986 10 14 00 16.8 118.1 975 65 5 Image Chart
1986 10 14 06 17.3 118.0 970 65 5 Image Chart
1986 10 14 12 17.6 117.8 970 70 5 Image Chart
1986 10 14 18 17.8 117.5 965 70 5 Image Chart
1986 10 15 00 17.9 117.4 970 70 5 Image Chart
1986 10 15 06 18.3 117.3 970 70 5 Image Chart
1986 10 15 12 18.6 117.2 975 70 5 Image Chart
1986 10 15 18 18.9 117.1 975 70 5 Image Chart
1986 10 16 00 19.0 116.9 980 65 5 Image Chart
1986 10 16 06 19.2 116.5 975 65 5 Image Chart
1986 10 16 12 19.5 116.0 975 65 5 Image Chart
1986 10 16 18 19.7 115.4 975 65 5 Image Chart
1986 10 17 00 20.0 115.0 975 65 5 Image Chart
1986 10 17 06 20.3 114.6 975 65 5 Image Chart
1986 10 17 12 20.7 114.2 975 65 5 Image Chart
1986 10 17 18 20.9 113.9 980 60 4 Image Chart
1986 10 18 00 21.0 113.6 985 50 4 Image Chart
1986 10 18 06 21.0 113.1 985 50 4 Image Chart
1986 10 18 12 21.0 112.6 990 50 4 Image Chart
1986 10 18 18 21.0 112.0 994 45 3 Image Chart
1986 10 19 00 21.0 111.2 998 35 3 Image Chart
1986 10 19 06 21.0 110.0 1000 0 2 Image Chart
1986 10 19 12 21.0 109.0 1000 0 2 Image Chart
1986 10 19 18 21.0 108.0 1004 0 2 Image Chart
1986 10 20 00 21.0 107.0 1008 0 2 Image Chart
1986 10 20 06 22.0 106.0 1012 0 2 Image Chart
Japan Meteorological Agency Best Track Data | Correction Date : 1992-10-21
< Typhoon 198619 1986 Season Typhoon 198621 >

Help